Main page
METAR-TAF:

METAR-TAF

Airports :

Brussels Airport. Zaventem

Brussels, Belgium

latitude: 50-54N, longitude: 004-32E, elevation: 55 m

Current weather observation

The report was made 40 minutes ago, at 07:20 UTC
Wind 1 kt from the East
Temperature -5°C
Humidity 93%
Pressure 1014 hPa
Visibility 10 km or more
no clouds below 1500 m and no cumulonimbus

METAR: EBBR 200720Z 08001KT CAVOK M05/M06 Q1014 NOSIG

Time: 09:00 (08:00 UTC)

Forecast

The report was made 3 hours and 0 minutes ago, at 05:00 UTC
Forecast valid from 20 at 06 UTC to 21 at 12 UTC
Wind 5 kt from the East/Northeast
Visibility 10 km or more
no clouds below 1500 m and no cumulonimbus
Temporary
from 21 at 03 UTC to 21 at 09 UTC
Visibility: 4000 m
mist
Probability 30% :
Temporary
from 21 at 04 UTC to 21 at 08 UTC
Visibility: 1200 m
patches of fog

TAF: EBBR 200500Z 2006/2112 06005KT CAVOK TEMPO 2103/2109 4000 BR PROB30 TEMPO 2104/2108 1200 BCFG

Weather observations and forecasts of more than 4000 airports (METAR and TAF reports).

The available stations are represented by yellow and red dots on the map.

Hover mouse over dot to see the name of the station.

Then click to see weather observations and forecasts.

To change the map : click on the green buttons with a black cross to zoom in, on the green button with a dash to zoom out, or on the green arrows for adjacent maps.


METAR-TAF: